Time;durP1;ratioP1;P1;durP2;ratioP2;P2;SDS_P1;SDS_P2;PMS_P1;PMS_P2;Temp;Humidity;BMP_temperature;BMP_pressure;BME280_temperature;BME280_humidity;BME280_pressure;Samples;Min_cycle;Max_cycle;Signal;HPM_P1;HPM_P2
2023/04/12 00:01:30;;;;;;;5.25;1.90;;;10.10;93.20;;;;;;5087357;28;20780;-65
2023/04/12 00:03:57;;;;;;;6.13;2.00;;;10.10;92.70;;;;;;5087096;28;20478;-64
2023/04/12 00:06:31;;;;;;;5.28;2.03;;;10.10;92.50;;;;;;5102713;28;20465;-66
2023/04/12 00:08:58;;;;;;;4.50;1.90;;;10.00;92.60;;;;;;5106770;28;20851;-64
2023/04/12 00:11:25;;;;;;;4.53;2.15;;;9.90;91.10;;;;;;5101338;28;20410;-68
2023/04/12 00:13:51;;;;;;;4.30;2.10;;;9.90;92.70;;;;;;5088761;28;20422;-66
2023/04/12 00:16:18;;;;;;;3.83;1.90;;;9.80;92.30;;;;;;5118038;22;20450;-69
2023/04/12 00:18:47;;;;;;;3.60;2.20;;;9.80;93.40;;;;;;5077289;28;20402;-70
2023/04/12 00:21:18;;;;;;;5.30;2.83;;;9.70;93.00;;;;;;5081534;28;20491;-69
2023/04/12 00:23:45;;;;;;;7.88;2.25;;;9.60;94.00;;;;;;5081412;28;20434;-69
2023/04/12 00:26:12;;;;;;;4.03;1.70;;;9.60;94.60;;;;;;5090591;28;20500;-69
2023/04/12 00:28:39;;;;;;;3.75;1.85;;;9.50;93.50;;;;;;5090070;28;20436;-69
2023/04/12 00:31:07;;;;;;;4.28;2.10;;;9.50;93.20;;;;;;5086941;28;20429;-69
2023/04/12 00:33:34;;;;;;;4.47;1.80;;;9.60;93.20;;;;;;5087137;28;20441;-70
2023/04/12 00:36:02;;;;;;;3.55;1.65;;;9.50;93.30;;;;;;5087438;28;20441;-69
2023/04/12 00:38:29;;;;;;;3.37;1.80;;;9.50;94.40;;;;;;5079574;28;20434;-69
2023/04/12 00:40:55;;;;;;;5.35;2.08;;;9.40;94.50;;;;;;5086282;28;20430;-69
2023/04/12 00:43:26;;;;;;;4.40;2.10;;;9.30;95.20;;;;;;5090337;28;20422;-69
2023/04/12 00:45:56;;;;;;;4.47;2.08;;;9.30;96.10;;;;;;5083321;28;20440;-70
2023/04/12 00:48:23;;;;;;;3.75;1.80;;;9.20;97.20;;;;;;5089521;28;20437;-69
2023/04/12 00:50:54;;;;;;;4.63;1.98;;;9.20;96.80;;;;;;5085980;28;20456;-70
2023/04/12 00:53:22;;;;;;;3.72;1.40;;;9.20;97.00;;;;;;5091969;28;20421;-69
2023/04/12 00:55:51;;;;;;;2.83;1.50;;;9.20;95.80;;;;;;5093541;28;20418;-69
2023/04/12 00:58:18;;;;;;;3.35;1.58;;;9.10;96.50;;;;;;5095022;28;20437;-68
2023/04/12 01:00:51;;;;;;;4.20;1.80;;;9.00;96.30;;;;;;5094381;28;20935;-70
2023/04/12 01:03:21;;;;;;;2.47;1.40;;;8.90;97.80;;;;;;5086445;28;20496;-69
2023/04/12 01:05:59;;;;;;;2.50;1.70;;;8.90;98.40;;;;;;5088220;28;20520;-70
2023/04/12 01:08:37;;;;;;;3.38;1.70;;;8.80;98.20;;;;;;5086861;28;20417;-70
2023/04/12 01:11:08;;;;;;;3.17;1.90;;;8.80;99.50;;;;;;5089932;28;20486;-70
2023/04/12 01:13:41;;;;;;;4.45;2.05;;;8.80;99.90;;;;;;5089615;28;20453;-69
2023/04/12 01:16:15;;;;;;;4.00;2.00;;;8.80;99.90;;;;;;5090222;28;20530;-69
2023/04/12 01:18:50;;;;;;;3.30;1.80;;;8.80;99.90;;;;;;5080841;28;20614;-70
2023/04/12 01:21:24;;;;;;;1.73;1.40;;;8.80;99.70;;;;;;5081652;28;20427;-69
2023/04/12 01:24:07;;;;;;;3.05;1.65;;;8.80;99.80;;;;;;5089122;28;20912;-70
2023/04/12 01:26:39;;;;;;;3.92;1.60;;;8.80;99.90;;;;;;5089644;28;20414;-69
2023/04/12 01:29:12;;;;;;;3.88;1.90;;;8.80;99.90;;;;;;5093919;28;20769;-71
2023/04/12 01:31:41;;;;;;;2.70;1.60;;;8.70;99.90;;;;;;5097806;28;20428;-72
2023/04/12 01:34:11;;;;;;;3.33;1.40;;;8.70;99.90;;;;;;5084713;28;20445;-71
2023/04/12 01:36:39;;;;;;;3.70;1.70;;;8.70;99.90;;;;;;5084158;28;20428;-71
2023/04/12 01:39:07;;;;;;;3.40;1.65;;;8.60;99.90;;;;;;5091049;28;20441;-72
2023/04/12 01:41:38;;;;;;;3.50;1.75;;;8.50;99.90;;;;;;5096297;28;20766;-71
2023/04/12 01:44:05;;;;;;;3.20;1.60;;;8.50;99.90;;;;;;5087311;28;20437;-71
2023/04/12 01:46:36;;;;;;;6.10;2.43;;;8.50;99.90;;;;;;5094420;28;20593;-71
2023/04/12 01:49:03;;;;;;;3.60;1.73;;;8.50;99.90;;;;;;5094141;28;20458;-71
2023/04/12 01:51:38;;;;;;;4.20;2.00;;;8.40;99.90;;;;;;5086084;28;20480;-71
2023/04/12 01:54:10;;;;;;;4.07;1.70;;;8.50;99.90;;;;;;5089343;28;20414;-71
2023/04/12 01:56:40;;;;;;;3.85;1.70;;;8.50;99.90;;;;;;5088532;28;20417;-71
2023/04/12 01:59:08;;;;;;;3.97;1.90;;;8.50;99.90;;;;;;5089881;28;20473;-71
2023/04/12 02:01:37;;;;;;;3.85;1.60;;;8.50;99.90;;;;;;5088508;28;20410;-70
2023/04/12 02:04:05;;;;;;;3.38;1.50;;;8.50;99.90;;;;;;5090158;28;20426;-70
2023/04/12 02:06:34;;;;;;;3.22;1.70;;;8.50;99.90;;;;;;5089125;28;20405;-69
2023/04/12 02:09:04;;;;;;;3.50;1.52;;;8.50;99.90;;;;;;5084051;28;20401;-69
2023/04/12 02:11:31;;;;;;;2.80;1.40;;;8.50;99.90;;;;;;5089612;28;20422;-70
2023/04/12 02:13:58;;;;;;;3.80;1.67;;;8.50;99.90;;;;;;5089404;28;20417;-70
2023/04/12 02:16:28;;;;;;;3.10;1.60;;;8.40;99.90;;;;;;5083502;28;20806;-70
2023/04/12 02:18:56;;;;;;;3.10;1.80;;;8.40;99.90;;;;;;5089330;28;20422;-70
2023/04/12 02:21:23;;;;;;;3.30;1.80;;;8.40;99.90;;;;;;5089124;28;20471;-70
2023/04/12 02:23:49;;;;;;;1.90;1.40;;;8.40;99.90;;;;;;5079430;28;20442;-70
2023/04/12 02:26:16;;;;;;;2.35;1.42;;;8.40;99.90;;;;;;5086818;28;20430;-70
2023/04/12 02:28:45;;;;;;;4.13;2.27;;;8.40;99.90;;;;;;5088399;28;20500;-70
2023/04/12 02:31:14;;;;;;;3.10;1.50;;;8.40;99.90;;;;;;5083561;28;20498;-70
2023/04/12 02:33:41;;;;;;;3.70;2.08;;;8.40;99.90;;;;;;5086850;28;20414;-69
2023/04/12 02:36:11;;;;;;;4.22;2.15;;;8.40;99.90;;;;;;5088080;28;20517;-70
2023/04/12 02:38:38;;;;;;;3.80;2.10;;;8.40;99.90;;;;;;5086067;28;20620;-70
2023/04/12 02:41:05;;;;;;;3.88;1.80;;;8.40;99.90;;;;;;5079651;28;20453;-70
2023/04/12 02:43:32;;;;;;;3.38;1.73;;;8.30;99.90;;;;;;5087713;28;20928;-70
2023/04/12 02:45:59;;;;;;;4.47;2.28;;;8.30;99.90;;;;;;5087550;28;20410;-70
2023/04/12 02:48:26;;;;;;;4.30;1.90;;;8.30;99.90;;;;;;5087424;28;20950;-70
2023/04/12 02:50:53;;;;;;;4.40;2.35;;;8.30;99.90;;;;;;5087522;28;20421;-70
2023/04/12 02:53:21;;;;;;;3.30;2.25;;;8.20;99.90;;;;;;5085859;28;20429;-70
2023/04/12 02:55:48;;;;;;;5.43;2.40;;;8.20;99.90;;;;;;5084972;28;20510;-70
2023/04/12 02:58:15;;;;;;;5.68;2.45;;;8.20;99.90;;;;;;5087481;28;20896;-70
2023/04/12 03:00:42;;;;;;;3.00;1.90;;;8.10;99.90;;;;;;5087554;28;20513;-70
2023/04/12 03:03:09;;;;;;;4.15;2.00;;;8.10;99.90;;;;;;5087457;28;20425;-70
2023/04/12 03:05:36;;;;;;;5.60;2.30;;;8.10;99.90;;;;;;5086990;28;20914;-70
2023/04/12 03:08:03;;;;;;;3.50;2.30;;;8.10;99.90;;;;;;5081105;28;20919;-70
2023/04/12 03:10:31;;;;;;;3.65;2.50;;;8.10;99.90;;;;;;5087264;28;20425;-70
2023/04/12 03:12:58;;;;;;;3.70;2.60;;;8.10;99.90;;;;;;5087774;28;20413;-70
2023/04/12 03:15:26;;;;;;;4.00;2.30;;;8.00;99.90;;;;;;5085053;28;20436;-70
2023/04/12 03:17:53;;;;;;;4.45;2.60;;;7.90;99.90;;;;;;5087828;28;20410;-70
2023/04/12 03:20:20;;;;;;;5.15;2.40;;;8.00;99.90;;;;;;5087637;28;20417;-69
2023/04/12 03:22:47;;;;;;;5.90;2.80;;;8.00;99.90;;;;;;5082804;28;20716;-70
2023/04/12 03:25:14;;;;;;;3.70;2.30;;;8.00;99.90;;;;;;5087438;28;20436;-69
2023/04/12 03:27:42;;;;;;;3.50;2.47;;;8.00;99.90;;;;;;5087657;28;20418;-70
2023/04/12 03:30:10;;;;;;;5.88;2.10;;;7.90;99.90;;;;;;5079949;28;20777;-70
2023/04/12 03:32:37;;;;;;;4.45;2.00;;;7.90;99.90;;;;;;5087116;28;20436;-70
2023/04/12 03:35:04;;;;;;;5.50;2.60;;;8.00;99.90;;;;;;5087714;28;20421;-70
2023/04/12 03:37:30;;;;;;;3.70;2.10;;;7.90;99.90;;;;;;5086288;28;20414;-70
2023/04/12 03:39:57;;;;;;;4.55;2.20;;;7.90;99.90;;;;;;5080619;28;20453;-70
2023/04/12 03:42:24;;;;;;;4.80;2.40;;;7.90;99.90;;;;;;5086655;28;20414;-70
2023/04/12 03:44:52;;;;;;;5.97;2.65;;;7.90;99.90;;;;;;5087309;28;20425;-70
2023/04/12 03:47:20;;;;;;;4.40;2.88;;;7.90;99.90;;;;;;5087386;28;20543;-70
2023/04/12 03:49:47;;;;;;;3.80;2.20;;;7.90;99.90;;;;;;5087341;28;20425;-70
2023/04/12 03:52:13;;;;;;;5.38;2.60;;;7.90;99.90;;;;;;5077938;28;20426;-70
2023/04/12 03:54:40;;;;;;;4.20;2.60;;;7.90;99.90;;;;;;5081287;28;20406;-70
2023/04/12 03:57:07;;;;;;;5.45;2.53;;;7.90;99.90;;;;;;5080007;28;20816;-69
2023/04/12 03:59:34;;;;;;;3.58;2.40;;;7.80;99.90;;;;;;5091665;28;20413;-69
2023/04/12 04:02:02;;;;;;;4.72;2.60;;;7.80;99.90;;;;;;5092052;28;20413;-69
2023/04/12 04:04:29;;;;;;;5.25;2.60;;;7.80;99.90;;;;;;5091071;28;20429;-69
2023/04/12 04:06:56;;;;;;;4.00;3.00;;;7.80;99.90;;;;;;5091448;28;20468;-71
2023/04/12 04:09:23;;;;;;;4.93;2.90;;;7.80;99.90;;;;;;5087613;28;20444;-71
2023/04/12 04:11:50;;;;;;;4.47;2.83;;;7.80;99.90;;;;;;5091148;28;20792;-71
2023/04/12 04:14:17;;;;;;;4.78;3.00;;;7.80;99.90;;;;;;5090754;28;20418;-71
2023/04/12 04:16:43;;;;;;;5.47;2.88;;;7.80;99.90;;;;;;5090688;28;20418;-70
2023/04/12 04:19:12;;;;;;;4.05;3.10;;;7.80;99.90;;;;;;5091177;28;20401;-71
2023/04/12 04:21:39;;;;;;;6.45;2.90;;;7.80;99.90;;;;;;5089755;28;20440;-72
2023/04/12 04:24:08;;;;;;;3.80;2.70;;;7.80;99.90;;;;;;5082382;28;21019;-69
2023/04/12 04:26:37;;;;;;;4.40;2.80;;;7.80;99.90;;;;;;5090204;28;20558;-70
2023/04/12 04:29:04;;;;;;;6.55;3.10;;;7.80;99.90;;;;;;5090876;28;20432;-70
2023/04/12 04:31:33;;;;;;;4.45;3.20;;;7.80;99.90;;;;;;5089733;28;20422;-68
2023/04/12 04:34:02;;;;;;;5.05;3.30;;;7.80;99.90;;;;;;5090051;28;20795;-69
2023/04/12 04:36:31;;;;;;;5.60;3.00;;;7.80;99.90;;;;;;5088995;28;20432;-69
2023/04/12 04:38:57;;;;;;;4.70;3.00;;;7.80;99.90;;;;;;5080935;28;20437;-70
2023/04/12 04:41:25;;;;;;;3.63;3.00;;;7.80;99.90;;;;;;5082304;28;20440;-70
2023/04/12 04:43:52;;;;;;;4.30;3.00;;;7.80;99.90;;;;;;5086740;28;20422;-69
2023/04/12 04:46:20;;;;;;;4.63;3.17;;;7.80;99.90;;;;;;5082174;28;20807;-69
2023/04/12 04:48:48;;;;;;;3.45;3.15;;;7.80;99.90;;;;;;5081193;28;20527;-69
2023/04/12 04:51:14;;;;;;;4.13;3.28;;;7.80;99.90;;;;;;5084058;28;20510;-68
2023/04/12 04:53:43;;;;;;;4.93;3.42;;;7.80;99.90;;;;;;5083142;28;20897;-69
2023/04/12 04:56:10;;;;;;;3.90;3.20;;;7.80;99.90;;;;;;5089381;28;20434;-70
2023/04/12 04:58:37;;;;;;;5.50;3.40;;;7.90;99.90;;;;;;5090192;28;20417;-70
2023/04/12 05:01:04;;;;;;;3.47;3.00;;;7.90;99.90;;;;;;5088932;28;20426;-70
2023/04/12 05:03:32;;;;;;;4.57;3.10;;;7.90;99.90;;;;;;5085532;28;20421;-70
2023/04/12 05:06:00;;;;;;;3.80;3.42;;;7.90;99.90;;;;;;5085924;28;20429;-70
2023/04/12 05:08:27;;;;;;;4.65;3.10;;;7.90;99.90;;;;;;5081090;28;20755;-70
2023/04/12 05:10:57;;;;;;;3.80;3.40;;;7.90;99.90;;;;;;5083917;28;20491;-69
2023/04/12 05:13:24;;;;;;;3.57;3.20;;;7.90;99.90;;;;;;5083460;28;20529;-68
2023/04/12 05:15:51;;;;;;;4.83;3.30;;;7.90;99.90;;;;;;5083705;28;20517;-70
2023/04/12 05:18:18;;;;;;;3.90;3.50;;;7.90;99.90;;;;;;5084375;28;20807;-69
2023/04/12 05:20:47;;;;;;;3.47;3.17;;;7.90;99.90;;;;;;5083443;28;20414;-70
2023/04/12 05:23:13;;;;;;;4.63;3.83;;;7.90;99.90;;;;;;5086414;28;20436;-70
2023/04/12 05:25:45;;;;;;;4.00;3.20;;;7.90;99.90;;;;;;5088260;28;21067;-69
2023/04/12 05:28:15;;;;;;;4.65;3.60;;;7.90;99.90;;;;;;5077777;28;20444;-69
2023/04/12 05:30:42;;;;;;;4.80;3.50;;;7.80;99.90;;;;;;5085907;28;20930;-68
2023/04/12 05:33:08;;;;;;;4.57;3.70;;;7.80;99.90;;;;;;5086128;28;20450;-71
2023/04/12 05:35:35;;;;;;;3.70;3.40;;;7.80;99.90;;;;;;5088121;28;20426;-71
2023/04/12 05:38:02;;;;;;;4.00;3.53;;;7.80;99.90;;;;;;5085766;28;20414;-69
2023/04/12 05:40:30;;;;;;;4.53;3.70;;;7.80;99.90;;;;;;5089596;28;20417;-71
2023/04/12 05:42:57;;;;;;;4.00;3.50;;;7.80;99.90;;;;;;5088134;28;20414;-71
2023/04/12 05:45:25;;;;;;;3.53;3.23;;;7.80;99.90;;;;;;5088887;28;20544;-70
2023/04/12 05:47:53;;;;;;;4.27;3.50;;;7.80;99.90;;;;;;5085173;28;20438;-70
2023/04/12 05:50:20;;;;;;;3.90;3.13;;;7.80;99.90;;;;;;5091903;28;20440;-70
2023/04/12 05:52:48;;;;;;;4.00;3.47;;;7.80;99.90;;;;;;5094606;28;20426;-70
2023/04/12 05:55:16;;;;;;;4.65;3.22;;;7.80;99.90;;;;;;5095768;28;20410;-68
2023/04/12 05:57:45;;;;;;;4.57;3.60;;;7.80;99.90;;;;;;5097176;28;20892;-70
2023/04/12 06:00:16;;;;;;;4.20;3.22;;;7.80;99.90;;;;;;5096935;28;20421;-70
2023/04/12 06:02:44;;;;;;;3.60;3.30;;;7.70;99.90;;;;;;5090087;28;20466;-69
2023/04/12 06:05:11;;;;;;;3.70;3.27;;;7.70;99.90;;;;;;5084174;28;20793;-70
2023/04/12 06:07:40;;;;;;;4.55;3.20;;;7.80;99.90;;;;;;5083328;28;20780;-70
2023/04/12 06:10:08;;;;;;;4.22;3.40;;;7.80;99.90;;;;;;5086294;28;20437;-71
2023/04/12 06:12:35;;;;;;;5.65;3.63;;;7.80;99.90;;;;;;5087957;28;20422;-70
2023/04/12 06:15:02;;;;;;;5.63;3.70;;;7.80;99.90;;;;;;5088122;28;20429;-71
2023/04/12 06:17:28;;;;;;;4.50;3.40;;;7.90;99.90;;;;;;5111548;22;20516;-67
2023/04/12 06:19:56;;;;;;;4.70;3.60;;;7.90;99.90;;;;;;5120829;28;20415;-68
2023/04/12 06:22:23;;;;;;;4.05;3.40;;;7.90;99.90;;;;;;5115916;28;20431;-68
2023/04/12 06:24:50;;;;;;;3.55;3.22;;;7.90;99.90;;;;;;5116477;28;20408;-69
2023/04/12 06:27:19;;;;;;;4.28;3.53;;;7.90;99.90;;;;;;5108428;28;20890;-68
2023/04/12 06:29:46;;;;;;;4.80;3.50;;;7.90;99.90;;;;;;5119677;28;20873;-67
2023/04/12 06:32:12;;;;;;;3.53;3.22;;;7.90;99.90;;;;;;5118251;28;20784;-67
2023/04/12 06:34:40;;;;;;;3.83;3.25;;;7.90;99.90;;;;;;5114780;28;20510;-68
2023/04/12 06:37:08;;;;;;;8.27;3.20;;;7.90;99.90;;;;;;5116971;28;20444;-67
2023/04/12 06:39:35;;;;;;;3.92;3.20;;;7.90;99.90;;;;;;5108994;28;20408;-68
2023/04/12 06:42:02;;;;;;;3.77;3.20;;;7.90;99.90;;;;;;5108543;28;20416;-68
2023/04/12 06:44:29;;;;;;;5.03;3.40;;;7.90;99.90;;;;;;5107692;28;20450;-67
2023/04/12 06:46:56;;;;;;;4.82;3.60;;;7.90;99.90;;;;;;5108287;28;20415;-68
2023/04/12 06:49:22;;;;;;;3.00;2.80;;;8.00;99.90;;;;;;5095725;28;20899;-67
2023/04/12 06:51:49;;;;;;;3.63;2.80;;;8.00;99.90;;;;;;5103928;28;20416;-67
2023/04/12 06:54:17;;;;;;;3.87;3.40;;;8.00;99.90;;;;;;5105650;28;20440;-67
2023/04/12 06:56:44;;;;;;;3.50;2.90;;;8.10;99.90;;;;;;5106842;28;20439;-67
2023/04/12 06:59:11;;;;;;;3.70;3.08;;;8.10;99.90;;;;;;5107308;28;20494;-67
2023/04/12 07:01:37;;;;;;;3.95;2.97;;;8.20;99.90;;;;;;5107566;28;20408;-68
2023/04/12 07:04:04;;;;;;;3.40;2.67;;;8.20;99.90;;;;;;5100760;28;20427;-67
2023/04/12 07:06:31;;;;;;;3.30;2.60;;;8.20;99.90;;;;;;5104274;28;20446;-68
2023/04/12 07:08:58;;;;;;;4.35;2.60;;;8.20;99.90;;;;;;5107375;28;20485;-67
2023/04/12 07:11:27;;;;;;;3.00;2.70;;;8.20;99.90;;;;;;5105566;28;20412;-69
2023/04/12 07:13:54;;;;;;;3.00;2.50;;;8.20;99.90;;;;;;5106804;28;20412;-68
2023/04/12 07:16:20;;;;;;;3.00;2.70;;;8.30;99.90;;;;;;5107070;28;20415;-69
2023/04/12 07:18:47;;;;;;;2.60;2.30;;;8.30;99.90;;;;;;5097118;28;20446;-69
2023/04/12 07:21:16;;;;;;;2.53;2.33;;;8.30;99.90;;;;;;5107387;28;20511;-70
2023/04/12 07:23:43;;;;;;;3.22;2.22;;;8.30;99.90;;;;;;5101348;28;20424;-70
2023/04/12 07:26:10;;;;;;;2.70;2.50;;;8.30;99.90;;;;;;5098211;28;20422;-69
2023/04/12 07:28:38;;;;;;;2.80;2.30;;;8.30;99.90;;;;;;5089223;28;20838;-71
2023/04/12 07:31:06;;;;;;;3.00;2.70;;;8.30;99.90;;;;;;5094115;28;20498;-69
2023/04/12 07:33:34;;;;;;;3.28;2.35;;;8.30;99.90;;;;;;5106342;28;20437;-70
2023/04/12 07:36:01;;;;;;;4.30;2.60;;;8.30;99.90;;;;;;5104995;28;20505;-69
2023/04/12 07:38:28;;;;;;;3.25;2.30;;;8.30;99.90;;;;;;5100215;28;20421;-69
2023/04/12 07:40:54;;;;;;;3.00;2.40;;;8.30;99.90;;;;;;5100007;28;20464;-69
2023/04/12 07:43:21;;;;;;;2.60;2.40;;;8.40;99.90;;;;;;5101099;28;20883;-70
2023/04/12 07:45:50;;;;;;;2.30;2.10;;;8.40;99.90;;;;;;5097259;28;20417;-69
2023/04/12 07:48:17;;;;;;;3.30;2.00;;;8.40;99.90;;;;;;5093473;28;20482;-70
2023/04/12 07:50:44;;;;;;;3.20;2.20;;;8.50;99.90;;;;;;5093179;28;20508;-68
2023/04/12 07:53:22;;;;;;;2.40;2.20;;;8.60;99.90;;;;;;5097628;28;20424;-70
2023/04/12 07:55:49;;;;;;;2.20;2.00;;;8.60;99.90;;;;;;5108767;28;20423;-70
2023/04/12 07:58:17;;;;;;;2.85;2.10;;;8.60;99.90;;;;;;5101586;28;20454;-70
2023/04/12 08:00:45;;;;;;;2.35;1.80;;;8.60;99.90;;;;;;5097742;28;20488;-71
2023/04/12 08:03:15;;;;;;;2.63;2.42;;;8.60;99.90;;;;;;5092018;28;20420;-70
2023/04/12 08:05:42;;;;;;;4.10;2.80;;;8.60;99.90;;;;;;5092079;28;20421;-70
2023/04/12 08:08:10;;;;;;;2.10;1.90;;;8.60;99.90;;;;;;5095307;28;20414;-69
2023/04/12 08:10:37;;;;;;;2.30;2.10;;;8.70;99.90;;;;;;5101652;28;20528;-70
2023/04/12 08:13:04;;;;;;;2.53;2.13;;;8.70;99.90;;;;;;5092392;28;20764;-70
2023/04/12 08:15:31;;;;;;;2.20;2.00;;;8.80;99.90;;;;;;5093541;28;20450;-69
2023/04/12 08:17:58;;;;;;;2.28;1.90;;;8.90;99.90;;;;;;5094400;28;20420;-69
2023/04/12 08:20:26;;;;;;;2.70;2.00;;;8.90;99.90;;;;;;5100420;28;20408;-70
2023/04/12 08:22:53;;;;;;;2.47;2.10;;;9.00;99.90;;;;;;5095317;28;20450;-69
2023/04/12 08:25:20;;;;;;;2.95;1.95;;;9.00;99.90;;;;;;5100655;28;20924;-70
2023/04/12 08:27:49;;;;;;;2.55;1.90;;;9.10;99.90;;;;;;5097025;28;20416;-70
2023/04/12 08:30:16;;;;;;;2.30;2.10;;;9.10;99.90;;;;;;5096567;28;20428;-69
2023/04/12 08:32:43;;;;;;;2.10;1.90;;;9.20;99.90;;;;;;5093049;28;20418;-70
2023/04/12 08:35:10;;;;;;;2.40;1.90;;;9.20;99.90;;;;;;5099072;28;20516;-70
2023/04/12 08:37:38;;;;;;;1.80;1.63;;;9.20;99.90;;;;;;5100260;28;20850;-69
2023/04/12 08:40:07;;;;;;;2.25;2.05;;;9.30;99.90;;;;;;5091204;28;20418;-69
2023/04/12 08:42:35;;;;;;;1.98;1.77;;;9.40;99.90;;;;;;5093415;28;20858;-69
2023/04/12 08:45:05;;;;;;;2.00;1.80;;;9.60;99.90;;;;;;5091645;28;20550;-70
2023/04/12 08:47:32;;;;;;;2.10;1.50;;;9.60;99.90;;;;;;5092956;28;20414;-70
2023/04/12 08:50:00;;;;;;;3.67;1.95;;;9.60;99.90;;;;;;5088714;28;20452;-70
2023/04/12 08:52:28;;;;;;;1.70;1.60;;;9.50;99.90;;;;;;5096942;28;20422;-70
2023/04/12 08:54:56;;;;;;;3.75;1.80;;;9.50;99.90;;;;;;5097038;28;20774;-70
2023/04/12 08:57:23;;;;;;;2.00;1.63;;;9.50;99.90;;;;;;5106983;28;20428;-69
2023/04/12 08:59:51;;;;;;;2.60;1.52;;;9.50;99.90;;;;;;5110579;28;20420;-69
2023/04/12 09:02:18;;;;;;;2.00;1.80;;;9.60;99.90;;;;;;5106959;28;20415;-68
2023/04/12 09:04:48;;;;;;;1.70;1.60;;;9.70;99.90;;;;;;5100042;28;20420;-68
2023/04/12 09:07:15;;;;;;;2.80;1.50;;;9.90;99.90;;;;;;5092122;28;20414;-68
2023/04/12 09:09:44;;;;;;;1.77;1.40;;;10.00;99.90;;;;;;5089656;28;20917;-68
2023/04/12 09:12:12;;;;;;;1.95;1.55;;;10.10;99.90;;;;;;5095533;28;20408;-69
2023/04/12 09:14:42;;;;;;;1.92;1.60;;;10.10;99.90;;;;;;5091118;28;20938;-68
2023/04/12 09:17:21;;;;;;;2.30;1.80;;;10.30;99.90;;;;;;5094319;28;20422;-68
2023/04/12 09:19:48;;;;;;;1.80;1.70;;;10.40;99.90;;;;;;5087963;28;20421;-68
2023/04/12 09:22:15;;;;;;;2.33;1.70;;;10.40;99.90;;;;;;5089676;28;20437;-69
2023/04/12 09:24:51;;;;;;;1.50;1.40;;;10.30;99.90;;;;;;5092802;28;20417;-69
2023/04/12 09:27:20;;;;;;;1.60;1.50;;;10.20;99.90;;;;;;5098011;28;20440;-69
2023/04/12 09:29:50;;;;;;;2.00;1.90;;;10.10;99.90;;;;;;5091329;28;20499;-68
2023/04/12 09:32:26;;;;;;;1.83;1.60;;;10.10;99.90;;;;;;5091660;28;20416;-69
2023/04/12 09:34:57;;;;;;;2.03;1.80;;;10.00;99.90;;;;;;5096473;28;20416;-69
2023/04/12 09:37:25;;;;;;;2.20;1.70;;;10.00;99.90;;;;;;5095770;28;20424;-69
2023/04/12 09:40:00;;;;;;;1.90;1.70;;;10.00;99.90;;;;;;5089836;28;20436;-69
2023/04/12 09:42:28;;;;;;;2.47;1.80;;;9.90;99.90;;;;;;5090011;28;20499;-69
2023/04/12 09:44:56;;;;;;;1.80;1.70;;;9.90;99.90;;;;;;5101749;28;20408;-69
2023/04/12 09:47:35;;;;;;;2.00;1.80;;;9.90;99.90;;;;;;5100447;28;21061;-69
2023/04/12 09:50:04;;;;;;;2.10;1.90;;;9.90;99.90;;;;;;5105571;28;20423;-69
2023/04/12 09:52:35;;;;;;;2.58;2.10;;;10.00;99.90;;;;;;5099282;28;20492;-71
2023/04/12 09:55:08;;;;;;;2.85;1.80;;;10.00;99.90;;;;;;5096027;28;20404;-68
2023/04/12 09:57:38;;;;;;;2.50;2.10;;;10.00;99.90;;;;;;5103592;28;20420;-69
2023/04/12 10:00:11;;;;;;;2.03;1.80;;;10.10;99.90;;;;;;5103249;28;20890;-69
2023/04/12 10:02:40;;;;;;;3.17;2.72;;;10.00;99.90;;;;;;5097769;28;20910;-69
2023/04/12 10:05:07;;;;;;;3.38;2.40;;;10.10;99.90;;;;;;5101836;28;20420;-69
2023/04/12 10:07:36;;;;;;;2.92;2.25;;;10.10;99.90;;;;;;5105188;28;20420;-69
2023/04/12 10:10:05;;;;;;;3.20;2.30;;;10.10;99.90;;;;;;5105525;28;20420;-68
2023/04/12 10:12:32;;;;;;;3.10;2.80;;;10.10;99.90;;;;;;5103821;28;20467;-68
2023/04/12 10:15:06;;;;;;;3.20;2.70;;;10.20;99.90;;;;;;5102903;28;20423;-69
2023/04/12 10:17:34;;;;;;;2.53;2.30;;;10.40;99.90;;;;;;5103749;28;20428;-68
2023/04/12 10:20:02;;;;;;;2.53;2.33;;;10.40;99.90;;;;;;5103544;28;20436;-68
2023/04/12 10:22:29;;;;;;;2.60;2.40;;;10.50;99.90;;;;;;5103281;28;20502;-68
2023/04/12 10:24:56;;;;;;;2.70;2.50;;;10.60;99.90;;;;;;5103733;28;20488;-68
2023/04/12 10:27:27;;;;;;;2.23;2.10;;;10.60;99.90;;;;;;5101766;28;21020;-68
2023/04/12 10:29:54;;;;;;;2.20;2.00;;;10.60;99.90;;;;;;5103688;28;20754;-68
2023/04/12 10:32:24;;;;;;;2.30;2.10;;;10.70;99.90;;;;;;5097929;28;20463;-68
2023/04/12 10:34:53;;;;;;;2.50;2.30;;;10.70;99.90;;;;;;5101394;28;20416;-68
2023/04/12 10:37:20;;;;;;;2.15;2.03;;;10.70;99.90;;;;;;5104057;28;20416;-68
2023/04/12 10:39:52;;;;;;;2.67;2.47;;;10.70;99.90;;;;;;5103391;28;20416;-68
2023/04/12 10:42:25;;;;;;;3.90;2.50;;;10.70;99.90;;;;;;5098786;28;20517;-68
2023/04/12 10:44:53;;;;;;;2.70;2.50;;;10.60;99.90;;;;;;5104268;28;20457;-70
2023/04/12 10:48:00;;;;;;;4.70;3.17;;;10.60;99.90;;;;;;5100041;28;21006;-68
2023/04/12 10:50:28;;;;;;;4.00;3.42;;;10.60;99.90;;;;;;5101102;28;20507;-68
2023/04/12 10:53:21;;;;;;;3.50;3.20;;;10.60;99.90;;;;;;5099015;28;20514;-69
2023/04/12 10:55:48;;;;;;;3.40;3.20;;;10.60;99.90;;;;;;5094833;28;20443;-68
2023/04/12 10:58:57;;;;;;;3.80;3.50;;;10.60;99.90;;;;;;5093243;28;20477;-68
2023/04/12 11:01:24;;;;;;;2.50;2.30;;;10.50;99.90;;;;;;5099067;28;20635;-68
2023/04/12 11:04:15;;;;;;;1.90;1.80;;;10.40;99.90;;;;;;5100885;28;20418;-68
2023/04/12 11:06:46;;;;;;;2.40;1.80;;;10.20;99.90;;;;;;5100448;28;20449;-68
2023/04/12 11:09:25;;;;;;;1.70;1.60;;;10.20;99.90;;;;;;5103437;28;20408;-67
2023/04/12 11:11:58;;;;;;;1.75;1.42;;;10.20;99.90;;;;;;5110136;28;20515;-67
2023/04/12 11:14:30;;;;;;;1.70;1.60;;;10.20;99.90;;;;;;5111276;28;20416;-69
2023/04/12 11:17:22;;;;;;;2.75;1.90;;;10.30;99.90;;;;;;5110415;28;20499;-68
2023/04/12 11:19:55;;;;;;;2.20;1.60;;;10.40;99.90;;;;;;5111494;28;20450;-67
2023/04/12 11:22:23;;;;;;;3.80;1.92;;;10.40;99.90;;;;;;5110858;28;20487;-68
2023/04/12 11:24:51;;;;;;;3.00;2.30;;;10.50;99.90;;;;;;5111487;28;20492;-67
2023/04/12 11:27:20;;;;;;;2.90;2.53;;;10.60;99.90;;;;;;5111321;28;20420;-69
2023/04/12 11:29:50;;;;;;;4.88;2.50;;;10.70;99.90;;;;;;5110219;28;20435;-70
2023/04/12 11:32:17;;;;;;;5.15;3.20;;;10.70;99.90;;;;;;5103335;28;20416;-71
2023/04/12 11:34:45;;;;;;;3.40;2.70;;;10.80;99.90;;;;;;5110851;28;20423;-70
2023/04/12 11:37:13;;;;;;;3.60;2.80;;;11.00;99.90;;;;;;5097166;28;20507;-70
2023/04/12 11:39:42;;;;;;;4.68;2.40;;;11.20;99.90;;;;;;5094530;28;20523;-70
2023/04/12 11:42:14;;;;;;;3.47;2.42;;;11.50;99.90;;;;;;5098392;28;20425;-70
2023/04/12 11:44:42;;;;;;;3.42;2.38;;;11.80;99.90;;;;;;5106777;28;20416;-70
2023/04/12 11:47:14;;;;;;;3.28;2.20;;;12.00;99.90;;;;;;5105423;28;20426;-70
2023/04/12 11:49:44;;;;;;;3.33;2.00;;;12.20;99.00;;;;;;5110136;28;20423;-70
2023/04/12 11:52:13;;;;;;;3.30;2.10;;;12.20;98.30;;;;;;5108967;28;20438;-68
2023/04/12 11:54:45;;;;;;;3.42;2.20;;;12.30;98.40;;;;;;5110044;28;20758;-68
2023/04/12 11:57:13;;;;;;;3.30;2.40;;;12.30;97.60;;;;;;5110627;28;20428;-68
2023/04/12 11:59:40;;;;;;;3.53;2.50;;;12.30;97.10;;;;;;5110143;28;20420;-68
2023/04/12 12:02:09;;;;;;;3.47;2.30;;;12.30;97.90;;;;;;5100166;28;20440;-68
2023/04/12 12:04:36;;;;;;;2.43;2.10;;;12.40;97.70;;;;;;5106798;28;20416;-69
2023/04/12 12:07:03;;;;;;;3.20;2.13;;;12.50;96.80;;;;;;5108309;28;20561;-69
2023/04/12 12:09:31;;;;;;;4.55;2.40;;;12.50;96.80;;;;;;5107537;28;20542;-69
2023/04/12 12:11:58;;;;;;;4.40;2.30;;;12.50;96.30;;;;;;5109999;28;20415;-69
2023/04/12 12:14:26;;;;;;;4.00;1.90;;;12.50;95.10;;;;;;5109207;28;20751;-69
2023/04/12 12:16:55;;;;;;;2.22;1.80;;;12.60;93.70;;;;;;5105425;28;20910;-69
2023/04/12 12:19:29;;;;;;;3.00;1.50;;;12.60;94.20;;;;;;5088872;22;20554;-71
2023/04/12 12:22:16;;;;;;;3.58;1.60;;;12.70;93.40;;;;;;5049974;28;20435;-72
2023/04/12 12:24:50;;;;;;;3.10;1.60;;;12.80;93.80;;;;;;5050833;28;20429;-71
2023/04/12 12:27:22;;;;;;;3.00;1.60;;;13.00;93.90;;;;;;5042220;28;20969;-70
2023/04/12 12:29:52;;;;;;;2.83;1.20;;;13.00;92.00;;;;;;5043883;28;20997;-71
2023/04/12 12:32:20;;;;;;;1.88;1.00;;;13.20;91.00;;;;;;5047506;28;20433;-71
2023/04/12 12:34:52;;;;;;;2.65;0.80;;;13.40;90.80;;;;;;5049256;28;20417;-69
2023/04/12 12:37:21;;;;;;;2.87;1.20;;;13.70;87.40;;;;;;5060933;28;20466;-70
2023/04/12 12:40:10;;;;;;;1.80;1.23;;;13.90;87.40;;;;;;5051485;28;20463;-70
2023/04/12 12:42:38;;;;;;;3.10;1.50;;;14.20;88.10;;;;;;5050854;28;20417;-72
2023/04/12 12:45:06;;;;;;;2.85;1.02;;;14.60;85.00;;;;;;5049250;28;20441;-71
2023/04/12 12:47:33;;;;;;;2.22;1.00;;;14.90;81.10;;;;;;5051621;28;20432;-70
2023/04/12 12:49:59;;;;;;;2.80;1.30;;;15.30;77.30;;;;;;5051599;28;20421;-70
2023/04/12 12:52:26;;;;;;;2.42;1.30;;;15.50;77.80;;;;;;5049785;28;20421;-74
2023/04/12 12:54:53;;;;;;;2.30;1.20;;;15.70;77.90;;;;;;5051613;28;20896;-70
2023/04/12 12:57:21;;;;;;;2.50;1.00;;;16.10;75.70;;;;;;5047603;28;20433;-72
2023/04/12 12:59:48;;;;;;;2.97;1.15;;;16.20;68.50;;;;;;5037287;28;20421;-71
2023/04/12 13:02:17;;;;;;;4.70;1.50;;;16.20;64.60;;;;;;5050506;28;20413;-70